sensor_id;sensor_type;location;lat;lon;timestamp;P1;durP1;ratioP1;P2;durP2;ratioP2
1308;SDS011;647;48.840;9.314;2022-08-01T00:01:39;58.77;;;3.43;;
1308;SDS011;647;48.840;9.314;2022-08-01T00:04:07;59.10;;;2.83;;
1308;SDS011;647;48.840;9.314;2022-08-01T00:06:35;59.10;;;2.90;;
1308;SDS011;647;48.840;9.314;2022-08-01T00:09:02;58.83;;;3.27;;
1308;SDS011;647;48.840;9.314;2022-08-01T00:11:29;63.90;;;5.07;;
1308;SDS011;647;48.840;9.314;2022-08-01T00:13:56;66.83;;;5.33;;
1308;SDS011;647;48.840;9.314;2022-08-01T00:16:24;66.37;;;5.40;;
1308;SDS011;647;48.840;9.314;2022-08-01T00:18:51;62.07;;;3.57;;
1308;SDS011;647;48.840;9.314;2022-08-01T00:21:19;60.23;;;4.20;;
1308;SDS011;647;48.840;9.314;2022-08-01T00:23:47;59.70;;;4.00;;
1308;SDS011;647;48.840;9.314;2022-08-01T00:26:14;59.07;;;3.60;;
1308;SDS011;647;48.840;9.314;2022-08-01T00:28:41;58.60;;;3.13;;
1308;SDS011;647;48.840;9.314;2022-08-01T00:31:09;59.63;;;3.77;;
1308;SDS011;647;48.840;9.314;2022-08-01T00:33:36;61.07;;;3.57;;
1308;SDS011;647;48.840;9.314;2022-08-01T00:36:03;64.50;;;4.00;;
1308;SDS011;647;48.840;9.314;2022-08-01T00:38:30;59.40;;;3.30;;
1308;SDS011;647;48.840;9.314;2022-08-01T00:40:59;59.00;;;3.43;;
1308;SDS011;647;48.840;9.314;2022-08-01T00:43:26;58.97;;;3.10;;
1308;SDS011;647;48.840;9.314;2022-08-01T00:45:53;59.07;;;3.53;;
1308;SDS011;647;48.840;9.314;2022-08-01T00:48:20;60.70;;;3.30;;
1308;SDS011;647;48.840;9.314;2022-08-01T00:50:47;60.50;;;3.17;;
1308;SDS011;647;48.840;9.314;2022-08-01T00:53:15;59.13;;;3.57;;
1308;SDS011;647;48.840;9.314;2022-08-01T00:55:42;58.80;;;3.00;;
1308;SDS011;647;48.840;9.314;2022-08-01T00:58:11;58.50;;;2.93;;
1308;SDS011;647;48.840;9.314;2022-08-01T01:00:38;58.63;;;3.30;;
1308;SDS011;647;48.840;9.314;2022-08-01T01:03:05;58.90;;;3.27;;
1308;SDS011;647;48.840;9.314;2022-08-01T01:05:33;59.23;;;3.43;;
1308;SDS011;647;48.840;9.314;2022-08-01T01:08:03;59.07;;;3.40;;
1308;SDS011;647;48.840;9.314;2022-08-01T01:10:31;62.43;;;3.83;;
1308;SDS011;647;48.840;9.314;2022-08-01T01:13:02;59.53;;;3.33;;
1308;SDS011;647;48.840;9.314;2022-08-01T01:15:34;59.17;;;3.10;;
1308;SDS011;647;48.840;9.314;2022-08-01T01:18:07;58.90;;;3.40;;
1308;SDS011;647;48.840;9.314;2022-08-01T01:20:35;59.30;;;3.53;;
1308;SDS011;647;48.840;9.314;2022-08-01T01:23:21;59.10;;;3.40;;
1308;SDS011;647;48.840;9.314;2022-08-01T01:25:54;58.63;;;3.00;;
1308;SDS011;647;48.840;9.314;2022-08-01T01:28:27;59.10;;;3.30;;
1308;SDS011;647;48.840;9.314;2022-08-01T01:30:57;59.40;;;3.70;;
1308;SDS011;647;48.840;9.314;2022-08-01T01:33:25;59.13;;;3.57;;
1308;SDS011;647;48.840;9.314;2022-08-01T01:35:57;59.07;;;3.33;;
1308;SDS011;647;48.840;9.314;2022-08-01T01:38:26;58.77;;;3.10;;
1308;SDS011;647;48.840;9.314;2022-08-01T01:40:55;58.87;;;2.90;;
1308;SDS011;647;48.840;9.314;2022-08-01T01:43:22;59.87;;;3.57;;
1308;SDS011;647;48.840;9.314;2022-08-01T01:45:50;59.13;;;3.87;;
1308;SDS011;647;48.840;9.314;2022-08-01T01:48:19;60.80;;;3.23;;
1308;SDS011;647;48.840;9.314;2022-08-01T01:50:47;60.30;;;3.53;;
1308;SDS011;647;48.840;9.314;2022-08-01T01:53:15;59.47;;;3.10;;
1308;SDS011;647;48.840;9.314;2022-08-01T01:55:43;58.37;;;3.07;;
1308;SDS011;647;48.840;9.314;2022-08-01T01:58:11;59.37;;;3.00;;
1308;SDS011;647;48.840;9.314;2022-08-01T02:00:40;60.17;;;4.23;;
1308;SDS011;647;48.840;9.314;2022-08-01T02:03:08;59.10;;;3.50;;
1308;SDS011;647;48.840;9.314;2022-08-01T02:05:38;59.17;;;3.23;;
1308;SDS011;647;48.840;9.314;2022-08-01T02:08:06;58.73;;;3.10;;
1308;SDS011;647;48.840;9.314;2022-08-01T02:10:34;59.10;;;3.73;;
1308;SDS011;647;48.840;9.314;2022-08-01T02:13:02;59.40;;;3.60;;
1308;SDS011;647;48.840;9.314;2022-08-01T02:15:31;60.67;;;3.60;;
1308;SDS011;647;48.840;9.314;2022-08-01T02:17:59;60.10;;;4.00;;
1308;SDS011;647;48.840;9.314;2022-08-01T02:20:28;59.47;;;3.40;;
1308;SDS011;647;48.840;9.314;2022-08-01T02:22:58;61.77;;;3.90;;
1308;SDS011;647;48.840;9.314;2022-08-01T02:25:28;59.20;;;3.27;;
1308;SDS011;647;48.840;9.314;2022-08-01T02:27:59;59.00;;;3.13;;
1308;SDS011;647;48.840;9.314;2022-08-01T02:30:26;59.10;;;3.10;;
1308;SDS011;647;48.840;9.314;2022-08-01T02:32:58;59.40;;;3.80;;
1308;SDS011;647;48.840;9.314;2022-08-01T02:35:28;59.60;;;3.37;;
1308;SDS011;647;48.840;9.314;2022-08-01T02:37:56;59.30;;;3.50;;
1308;SDS011;647;48.840;9.314;2022-08-01T02:40:26;59.00;;;3.80;;
1308;SDS011;647;48.840;9.314;2022-08-01T02:42:54;59.30;;;3.83;;
1308;SDS011;647;48.840;9.314;2022-08-01T02:45:22;60.43;;;3.97;;
1308;SDS011;647;48.840;9.314;2022-08-01T02:47:51;59.17;;;3.23;;
1308;SDS011;647;48.840;9.314;2022-08-01T02:50:20;58.80;;;3.30;;
1308;SDS011;647;48.840;9.314;2022-08-01T02:52:49;59.30;;;3.60;;
1308;SDS011;647;48.840;9.314;2022-08-01T02:55:19;59.50;;;3.63;;
1308;SDS011;647;48.840;9.314;2022-08-01T02:57:49;59.50;;;3.30;;
1308;SDS011;647;48.840;9.314;2022-08-01T03:00:16;59.27;;;3.50;;
1308;SDS011;647;48.840;9.314;2022-08-01T03:02:44;59.10;;;3.43;;
1308;SDS011;647;48.840;9.314;2022-08-01T03:05:13;58.43;;;3.10;;
1308;SDS011;647;48.840;9.314;2022-08-01T03:07:40;59.97;;;3.80;;
1308;SDS011;647;48.840;9.314;2022-08-01T03:10:08;59.27;;;3.80;;
1308;SDS011;647;48.840;9.314;2022-08-01T03:12:36;59.03;;;3.47;;
1308;SDS011;647;48.840;9.314;2022-08-01T03:15:06;59.70;;;3.37;;
1308;SDS011;647;48.840;9.314;2022-08-01T03:17:35;59.77;;;3.27;;
1308;SDS011;647;48.840;9.314;2022-08-01T03:20:03;59.07;;;3.77;;
1308;SDS011;647;48.840;9.314;2022-08-01T03:22:31;59.00;;;3.47;;
1308;SDS011;647;48.840;9.314;2022-08-01T03:24:59;58.50;;;2.93;;
1308;SDS011;647;48.840;9.314;2022-08-01T03:27:26;58.57;;;3.20;;
1308;SDS011;647;48.840;9.314;2022-08-01T03:29:54;59.20;;;3.33;;
1308;SDS011;647;48.840;9.314;2022-08-01T03:32:23;59.17;;;3.60;;
1308;SDS011;647;48.840;9.314;2022-08-01T03:34:51;59.43;;;3.27;;
1308;SDS011;647;48.840;9.314;2022-08-01T03:37:21;59.30;;;3.77;;
1308;SDS011;647;48.840;9.314;2022-08-01T03:39:50;59.47;;;3.70;;
1308;SDS011;647;48.840;9.314;2022-08-01T03:42:20;59.00;;;3.20;;
1308;SDS011;647;48.840;9.314;2022-08-01T03:44:48;60.00;;;4.23;;
1308;SDS011;647;48.840;9.314;2022-08-01T03:47:16;59.70;;;3.67;;
1308;SDS011;647;48.840;9.314;2022-08-01T03:49:45;58.67;;;3.20;;
1308;SDS011;647;48.840;9.314;2022-08-01T03:52:13;60.60;;;4.50;;
1308;SDS011;647;48.840;9.314;2022-08-01T03:54:41;59.60;;;3.90;;
1308;SDS011;647;48.840;9.314;2022-08-01T03:57:11;59.73;;;4.10;;
1308;SDS011;647;48.840;9.314;2022-08-01T03:59:38;59.40;;;3.80;;
1308;SDS011;647;48.840;9.314;2022-08-01T04:02:05;59.10;;;3.40;;
1308;SDS011;647;48.840;9.314;2022-08-01T04:04:33;59.60;;;3.80;;
1308;SDS011;647;48.840;9.314;2022-08-01T04:07:02;60.87;;;4.60;;
1308;SDS011;647;48.840;9.314;2022-08-01T04:09:31;59.50;;;3.97;;
1308;SDS011;647;48.840;9.314;2022-08-01T04:11:59;58.70;;;3.67;;
1308;SDS011;647;48.840;9.314;2022-08-01T04:14:27;61.30;;;4.20;;
1308;SDS011;647;48.840;9.314;2022-08-01T04:16:54;61.77;;;3.90;;
1308;SDS011;647;48.840;9.314;2022-08-01T04:19:21;59.57;;;3.80;;
1308;SDS011;647;48.840;9.314;2022-08-01T04:21:49;59.37;;;3.57;;
1308;SDS011;647;48.840;9.314;2022-08-01T04:24:18;59.70;;;3.77;;
1308;SDS011;647;48.840;9.314;2022-08-01T04:26:46;59.40;;;4.00;;
1308;SDS011;647;48.840;9.314;2022-08-01T04:29:14;60.00;;;4.00;;
1308;SDS011;647;48.840;9.314;2022-08-01T04:31:44;60.00;;;4.17;;
1308;SDS011;647;48.840;9.314;2022-08-01T04:34:12;60.60;;;4.27;;
1308;SDS011;647;48.840;9.314;2022-08-01T04:36:40;62.87;;;3.80;;
1308;SDS011;647;48.840;9.314;2022-08-01T04:39:07;59.57;;;3.70;;
1308;SDS011;647;48.840;9.314;2022-08-01T04:41:36;59.67;;;3.77;;
1308;SDS011;647;48.840;9.314;2022-08-01T04:44:04;59.37;;;3.60;;
1308;SDS011;647;48.840;9.314;2022-08-01T04:46:31;59.80;;;3.67;;
1308;SDS011;647;48.840;9.314;2022-08-01T04:49:02;60.20;;;3.37;;
1308;SDS011;647;48.840;9.314;2022-08-01T04:51:29;58.80;;;3.53;;
1308;SDS011;647;48.840;9.314;2022-08-01T04:53:56;59.90;;;4.00;;
1308;SDS011;647;48.840;9.314;2022-08-01T04:56:26;59.77;;;3.50;;
1308;SDS011;647;48.840;9.314;2022-08-01T04:58:54;59.37;;;3.60;;
1308;SDS011;647;48.840;9.314;2022-08-01T05:01:35;59.47;;;4.37;;
1308;SDS011;647;48.840;9.314;2022-08-01T05:04:02;59.07;;;3.10;;
1308;SDS011;647;48.840;9.314;2022-08-01T05:06:29;59.40;;;4.20;;
1308;SDS011;647;48.840;9.314;2022-08-01T05:08:57;59.40;;;3.57;;
1308;SDS011;647;48.840;9.314;2022-08-01T05:11:24;59.77;;;3.63;;
1308;SDS011;647;48.840;9.314;2022-08-01T05:13:51;59.70;;;4.20;;
1308;SDS011;647;48.840;9.314;2022-08-01T05:16:19;59.60;;;3.97;;
1308;SDS011;647;48.840;9.314;2022-08-01T05:18:46;58.70;;;3.30;;
1308;SDS011;647;48.840;9.314;2022-08-01T05:21:13;59.20;;;3.50;;
1308;SDS011;647;48.840;9.314;2022-08-01T05:23:41;59.30;;;3.77;;
1308;SDS011;647;48.840;9.314;2022-08-01T05:26:08;58.00;;;3.07;;
1308;SDS011;647;48.840;9.314;2022-08-01T05:28:35;59.60;;;3.53;;
1308;SDS011;647;48.840;9.314;2022-08-01T05:31:02;59.10;;;3.97;;
1308;SDS011;647;48.840;9.314;2022-08-01T05:33:30;59.30;;;3.67;;
1308;SDS011;647;48.840;9.314;2022-08-01T05:35:58;59.20;;;3.50;;
1308;SDS011;647;48.840;9.314;2022-08-01T05:38:25;59.40;;;3.27;;
1308;SDS011;647;48.840;9.314;2022-08-01T05:40:52;59.20;;;3.60;;
1308;SDS011;647;48.840;9.314;2022-08-01T05:43:19;58.87;;;3.33;;
1308;SDS011;647;48.840;9.314;2022-08-01T05:45:46;59.57;;;3.83;;
1308;SDS011;647;48.840;9.314;2022-08-01T05:48:13;59.27;;;3.37;;
1308;SDS011;647;48.840;9.314;2022-08-01T05:50:42;59.00;;;3.40;;
1308;SDS011;647;48.840;9.314;2022-08-01T05:53:09;62.93;;;3.70;;
1308;SDS011;647;48.840;9.314;2022-08-01T05:55:36;59.30;;;3.07;;
1308;SDS011;647;48.840;9.314;2022-08-01T05:58:03;58.60;;;3.10;;
1308;SDS011;647;48.840;9.314;2022-08-01T06:00:30;58.60;;;3.20;;
1308;SDS011;647;48.840;9.314;2022-08-01T06:02:57;58.90;;;3.37;;
1308;SDS011;647;48.840;9.314;2022-08-01T06:05:24;58.50;;;3.37;;
1308;SDS011;647;48.840;9.314;2022-08-01T06:07:53;59.17;;;2.87;;
1308;SDS011;647;48.840;9.314;2022-08-01T06:10:20;58.37;;;2.87;;
1308;SDS011;647;48.840;9.314;2022-08-01T06:12:47;58.47;;;2.90;;
1308;SDS011;647;48.840;9.314;2022-08-01T06:15:14;58.27;;;2.83;;
1308;SDS011;647;48.840;9.314;2022-08-01T06:17:41;58.03;;;2.67;;
1308;SDS011;647;48.840;9.314;2022-08-01T06:20:09;58.37;;;3.10;;
1308;SDS011;647;48.840;9.314;2022-08-01T06:22:36;58.30;;;3.23;;
1308;SDS011;647;48.840;9.314;2022-08-01T06:25:06;58.80;;;3.03;;
1308;SDS011;647;48.840;9.314;2022-08-01T06:27:33;59.10;;;3.10;;
1308;SDS011;647;48.840;9.314;2022-08-01T06:30:01;58.23;;;3.17;;
1308;SDS011;647;48.840;9.314;2022-08-01T06:32:28;58.60;;;2.97;;
1308;SDS011;647;48.840;9.314;2022-08-01T06:34:56;58.50;;;2.90;;
1308;SDS011;647;48.840;9.314;2022-08-01T06:37:23;58.80;;;2.80;;
1308;SDS011;647;48.840;9.314;2022-08-01T06:39:50;58.27;;;2.60;;
1308;SDS011;647;48.840;9.314;2022-08-01T06:42:19;58.87;;;3.00;;
1308;SDS011;647;48.840;9.314;2022-08-01T06:44:46;58.07;;;2.80;;
1308;SDS011;647;48.840;9.314;2022-08-01T06:47:13;58.37;;;2.70;;
1308;SDS011;647;48.840;9.314;2022-08-01T06:49:40;58.80;;;2.80;;
1308;SDS011;647;48.840;9.314;2022-08-01T06:52:07;58.97;;;2.83;;
1308;SDS011;647;48.840;9.314;2022-08-01T06:54:35;58.10;;;2.60;;
1308;SDS011;647;48.840;9.314;2022-08-01T06:57:04;58.63;;;2.90;;
1308;SDS011;647;48.840;9.314;2022-08-01T06:59:33;58.60;;;3.37;;
1308;SDS011;647;48.840;9.314;2022-08-01T07:02:00;58.17;;;2.73;;
1308;SDS011;647;48.840;9.314;2022-08-01T07:04:27;58.17;;;2.53;;
1308;SDS011;647;48.840;9.314;2022-08-01T07:06:54;61.10;;;3.97;;
1308;SDS011;647;48.840;9.314;2022-08-01T07:09:21;58.67;;;2.60;;
1308;SDS011;647;48.840;9.314;2022-08-01T07:11:48;58.40;;;2.60;;
1308;SDS011;647;48.840;9.314;2022-08-01T07:14:17;58.40;;;2.87;;
1308;SDS011;647;48.840;9.314;2022-08-01T07:16:45;57.83;;;2.50;;
1308;SDS011;647;48.840;9.314;2022-08-01T07:19:13;57.97;;;2.40;;
1308;SDS011;647;48.840;9.314;2022-08-01T07:21:40;58.90;;;3.00;;
1308;SDS011;647;48.840;9.314;2022-08-01T07:24:08;57.93;;;2.13;;
1308;SDS011;647;48.840;9.314;2022-08-01T07:26:35;58.13;;;2.47;;
1308;SDS011;647;48.840;9.314;2022-08-01T07:29:02;58.90;;;2.83;;
1308;SDS011;647;48.840;9.314;2022-08-01T07:31:30;58.00;;;2.53;;
1308;SDS011;647;48.840;9.314;2022-08-01T07:33:58;58.00;;;2.40;;
1308;SDS011;647;48.840;9.314;2022-08-01T07:36:25;58.63;;;3.00;;
1308;SDS011;647;48.840;9.314;2022-08-01T07:38:52;59.10;;;2.50;;
1308;SDS011;647;48.840;9.314;2022-08-01T07:41:19;62.10;;;2.63;;
1308;SDS011;647;48.840;9.314;2022-08-01T07:43:47;58.70;;;2.90;;
1308;SDS011;647;48.840;9.314;2022-08-01T07:46:14;58.03;;;2.37;;
1308;SDS011;647;48.840;9.314;2022-08-01T07:48:41;58.10;;;2.70;;
1308;SDS011;647;48.840;9.314;2022-08-01T07:51:10;58.67;;;2.60;;
1308;SDS011;647;48.840;9.314;2022-08-01T07:53:37;58.80;;;2.93;;
1308;SDS011;647;48.840;9.314;2022-08-01T07:56:04;58.40;;;3.10;;
1308;SDS011;647;48.840;9.314;2022-08-01T07:58:31;58.10;;;2.60;;
1308;SDS011;647;48.840;9.314;2022-08-01T08:00:59;59.57;;;2.77;;
1308;SDS011;647;48.840;9.314;2022-08-01T08:03:26;58.50;;;2.90;;
1308;SDS011;647;48.840;9.314;2022-08-01T08:05:53;58.60;;;2.90;;
1308;SDS011;647;48.840;9.314;2022-08-01T08:08:21;58.10;;;2.70;;
1308;SDS011;647;48.840;9.314;2022-08-01T08:10:49;58.07;;;2.50;;
1308;SDS011;647;48.840;9.314;2022-08-01T08:13:16;57.97;;;2.30;;
1308;SDS011;647;48.840;9.314;2022-08-01T08:15:43;58.60;;;2.87;;
1308;SDS011;647;48.840;9.314;2022-08-01T08:18:11;60.80;;;2.70;;
1308;SDS011;647;48.840;9.314;2022-08-01T08:20:38;58.50;;;2.83;;
1308;SDS011;647;48.840;9.314;2022-08-01T08:23:05;58.47;;;2.50;;
1308;SDS011;647;48.840;9.314;2022-08-01T08:25:54;58.30;;;2.70;;
1308;SDS011;647;48.840;9.314;2022-08-01T08:28:21;58.00;;;2.53;;
1308;SDS011;647;48.840;9.314;2022-08-01T08:30:48;57.87;;;2.50;;
1308;SDS011;647;48.840;9.314;2022-08-01T08:33:15;58.37;;;2.63;;
1308;SDS011;647;48.840;9.314;2022-08-01T08:35:42;57.87;;;2.37;;
1308;SDS011;647;48.840;9.314;2022-08-01T08:38:09;58.57;;;2.83;;
1308;SDS011;647;48.840;9.314;2022-08-01T08:40:36;58.60;;;2.70;;
1308;SDS011;647;48.840;9.314;2022-08-01T08:43:05;58.07;;;2.60;;
1308;SDS011;647;48.840;9.314;2022-08-01T08:45:32;58.27;;;2.77;;
1308;SDS011;647;48.840;9.314;2022-08-01T08:48:00;58.27;;;2.77;;
1308;SDS011;647;48.840;9.314;2022-08-01T08:50:27;58.10;;;2.50;;
1308;SDS011;647;48.840;9.314;2022-08-01T08:52:55;58.50;;;2.87;;
1308;SDS011;647;48.840;9.314;2022-08-01T08:55:22;58.40;;;2.50;;
1308;SDS011;647;48.840;9.314;2022-08-01T08:57:50;57.90;;;2.40;;
1308;SDS011;647;48.840;9.314;2022-08-01T09:00:20;57.63;;;2.33;;
1308;SDS011;647;48.840;9.314;2022-08-01T09:02:47;58.00;;;2.40;;
1308;SDS011;647;48.840;9.314;2022-08-01T09:05:15;57.87;;;2.60;;
1308;SDS011;647;48.840;9.314;2022-08-01T09:07:50;58.17;;;2.40;;
1308;SDS011;647;48.840;9.314;2022-08-01T09:10:17;60.57;;;2.80;;
1308;SDS011;647;48.840;9.314;2022-08-01T09:13:04;59.03;;;2.30;;
1308;SDS011;647;48.840;9.314;2022-08-01T09:15:40;58.57;;;2.50;;
1308;SDS011;647;48.840;9.314;2022-08-01T09:18:07;58.07;;;2.43;;
1308;SDS011;647;48.840;9.314;2022-08-01T09:20:34;57.97;;;2.60;;
1308;SDS011;647;48.840;9.314;2022-08-01T09:23:01;58.10;;;2.40;;
1308;SDS011;647;48.840;9.314;2022-08-01T09:25:28;57.97;;;2.40;;
1308;SDS011;647;48.840;9.314;2022-08-01T09:28:02;57.77;;;2.30;;
1308;SDS011;647;48.840;9.314;2022-08-01T09:30:33;58.03;;;2.40;;
1308;SDS011;647;48.840;9.314;2022-08-01T09:33:04;58.30;;;2.90;;
1308;SDS011;647;48.840;9.314;2022-08-01T09:35:32;57.83;;;2.20;;
1308;SDS011;647;48.840;9.314;2022-08-01T09:38:14;58.10;;;2.33;;
1308;SDS011;647;48.840;9.314;2022-08-01T09:40:45;58.60;;;3.10;;
1308;SDS011;647;48.840;9.314;2022-08-01T09:43:12;58.07;;;2.60;;
1308;SDS011;647;48.840;9.314;2022-08-01T09:45:40;58.60;;;2.70;;
1308;SDS011;647;48.840;9.314;2022-08-01T09:48:09;59.17;;;3.23;;
1308;SDS011;647;48.840;9.314;2022-08-01T09:50:40;57.97;;;2.90;;
1308;SDS011;647;48.840;9.314;2022-08-01T09:53:08;58.80;;;2.83;;
1308;SDS011;647;48.840;9.314;2022-08-01T09:55:35;58.87;;;2.93;;
1308;SDS011;647;48.840;9.314;2022-08-01T09:58:03;58.80;;;3.10;;
1308;SDS011;647;48.840;9.314;2022-08-01T10:00:30;58.07;;;2.60;;
1308;SDS011;647;48.840;9.314;2022-08-01T10:02:57;58.10;;;2.60;;
1308;SDS011;647;48.840;9.314;2022-08-01T10:05:32;58.70;;;2.80;;
1308;SDS011;647;48.840;9.314;2022-08-01T10:08:02;58.47;;;3.03;;
1308;SDS011;647;48.840;9.314;2022-08-01T10:10:30;60.30;;;3.20;;
1308;SDS011;647;48.840;9.314;2022-08-01T10:12:58;58.60;;;2.87;;
1308;SDS011;647;48.840;9.314;2022-08-01T10:15:25;58.50;;;2.53;;
1308;SDS011;647;48.840;9.314;2022-08-01T10:17:53;58.30;;;3.20;;
1308;SDS011;647;48.840;9.314;2022-08-01T10:20:21;58.00;;;2.70;;
1308;SDS011;647;48.840;9.314;2022-08-01T10:22:51;58.30;;;2.97;;
1308;SDS011;647;48.840;9.314;2022-08-01T10:25:19;58.43;;;3.00;;
1308;SDS011;647;48.840;9.314;2022-08-01T10:27:47;58.37;;;3.27;;
1308;SDS011;647;48.840;9.314;2022-08-01T10:30:15;57.87;;;2.53;;
1308;SDS011;647;48.840;9.314;2022-08-01T10:32:42;59.40;;;2.67;;
1308;SDS011;647;48.840;9.314;2022-08-01T10:35:12;58.10;;;2.57;;
1308;SDS011;647;48.840;9.314;2022-08-01T10:37:42;57.43;;;2.83;;
1308;SDS011;647;48.840;9.314;2022-08-01T10:40:12;57.33;;;2.40;;
1308;SDS011;647;48.840;9.314;2022-08-01T10:42:40;57.17;;;2.40;;
1308;SDS011;647;48.840;9.314;2022-08-01T10:45:08;57.30;;;2.33;;
1308;SDS011;647;48.840;9.314;2022-08-01T10:47:37;56.87;;;2.07;;
1308;SDS011;647;48.840;9.314;2022-08-01T10:50:07;57.30;;;2.73;;
1308;SDS011;647;48.840;9.314;2022-08-01T10:52:38;57.40;;;2.90;;
1308;SDS011;647;48.840;9.314;2022-08-01T10:55:06;57.13;;;2.43;;
1308;SDS011;647;48.840;9.314;2022-08-01T10:57:43;56.87;;;2.13;;
1308;SDS011;647;48.840;9.314;2022-08-01T11:00:15;57.10;;;2.40;;
1308;SDS011;647;48.840;9.314;2022-08-01T11:02:57;56.87;;;2.60;;
1308;SDS011;647;48.840;9.314;2022-08-01T11:05:25;57.20;;;2.20;;
1308;SDS011;647;48.840;9.314;2022-08-01T11:07:53;57.17;;;2.23;;
1308;SDS011;647;48.840;9.314;2022-08-01T11:10:22;57.00;;;2.00;;
1308;SDS011;647;48.840;9.314;2022-08-01T11:12:52;57.23;;;2.57;;
1308;SDS011;647;48.840;9.314;2022-08-01T11:15:20;56.83;;;2.50;;
1308;SDS011;647;48.840;9.314;2022-08-01T11:17:51;57.30;;;2.57;;
1308;SDS011;647;48.840;9.314;2022-08-01T11:20:20;57.50;;;2.73;;
1308;SDS011;647;48.840;9.314;2022-08-01T11:28:20;57.23;;;2.60;;
1308;SDS011;647;48.840;9.314;2022-08-01T11:30:49;57.70;;;2.77;;
1308;SDS011;647;48.840;9.314;2022-08-01T11:33:17;57.40;;;2.40;;
1308;SDS011;647;48.840;9.314;2022-08-01T11:38:27;57.20;;;2.30;;
1308;SDS011;647;48.840;9.314;2022-08-01T11:41:09;57.17;;;2.20;;
1308;SDS011;647;48.840;9.314;2022-08-01T11:43:42;57.20;;;2.53;;
1308;SDS011;647;48.840;9.314;2022-08-01T11:51:48;57.10;;;2.20;;
1308;SDS011;647;48.840;9.314;2022-08-01T11:54:16;56.97;;;2.00;;
1308;SDS011;647;48.840;9.314;2022-08-01T11:56:43;56.77;;;2.00;;
1308;SDS011;647;48.840;9.314;2022-08-01T11:59:11;57.60;;;2.40;;
1308;SDS011;647;48.840;9.314;2022-08-01T12:01:39;56.90;;;2.27;;
1308;SDS011;647;48.840;9.314;2022-08-01T12:04:07;56.87;;;2.20;;
1308;SDS011;647;48.840;9.314;2022-08-01T12:06:35;57.10;;;2.53;;
1308;SDS011;647;48.840;9.314;2022-08-01T12:09:14;56.97;;;2.00;;
1308;SDS011;647;48.840;9.314;2022-08-01T12:11:41;57.00;;;2.40;;
1308;SDS011;647;48.840;9.314;2022-08-01T12:14:08;56.97;;;2.40;;
1308;SDS011;647;48.840;9.314;2022-08-01T12:16:37;57.17;;;2.40;;
1308;SDS011;647;48.840;9.314;2022-08-01T12:19:04;57.00;;;2.30;;
1308;SDS011;647;48.840;9.314;2022-08-01T12:21:31;56.80;;;2.03;;
1308;SDS011;647;48.840;9.314;2022-08-01T12:24:02;57.33;;;2.27;;
1308;SDS011;647;48.840;9.314;2022-08-01T12:26:39;57.10;;;2.27;;
1308;SDS011;647;48.840;9.314;2022-08-01T12:29:06;57.27;;;2.23;;
1308;SDS011;647;48.840;9.314;2022-08-01T12:31:33;57.57;;;2.60;;
1308;SDS011;647;48.840;9.314;2022-08-01T12:36:47;57.17;;;2.60;;
1308;SDS011;647;48.840;9.314;2022-08-01T12:39:14;56.73;;;2.37;;
1308;SDS011;647;48.840;9.314;2022-08-01T12:41:42;56.50;;;1.80;;
1308;SDS011;647;48.840;9.314;2022-08-01T12:44:12;57.00;;;2.37;;
1308;SDS011;647;48.840;9.314;2022-08-01T12:46:41;56.70;;;2.13;;
1308;SDS011;647;48.840;9.314;2022-08-01T12:49:08;57.00;;;2.30;;
1308;SDS011;647;48.840;9.314;2022-08-01T12:51:35;56.93;;;2.30;;
1308;SDS011;647;48.840;9.314;2022-08-01T12:54:04;57.00;;;2.40;;
1308;SDS011;647;48.840;9.314;2022-08-01T12:56:35;58.90;;;2.33;;
1308;SDS011;647;48.840;9.314;2022-08-01T12:59:02;56.70;;;2.20;;
1308;SDS011;647;48.840;9.314;2022-08-01T13:01:45;56.77;;;2.40;;
1308;SDS011;647;48.840;9.314;2022-08-01T13:04:13;57.07;;;2.30;;
1308;SDS011;647;48.840;9.314;2022-08-01T13:06:40;56.60;;;2.10;;
1308;SDS011;647;48.840;9.314;2022-08-01T13:09:08;57.40;;;2.07;;
1308;SDS011;647;48.840;9.314;2022-08-01T13:11:36;57.03;;;2.13;;
1308;SDS011;647;48.840;9.314;2022-08-01T13:14:04;57.23;;;2.53;;
1308;SDS011;647;48.840;9.314;2022-08-01T13:16:31;56.67;;;1.93;;
1308;SDS011;647;48.840;9.314;2022-08-01T13:18:58;57.20;;;2.40;;
1308;SDS011;647;48.840;9.314;2022-08-01T13:21:26;57.70;;;2.70;;
1308;SDS011;647;48.840;9.314;2022-08-01T13:24:00;56.90;;;2.23;;
1308;SDS011;647;48.840;9.314;2022-08-01T13:26:38;56.77;;;1.97;;
1308;SDS011;647;48.840;9.314;2022-08-01T13:29:07;57.40;;;2.40;;
1308;SDS011;647;48.840;9.314;2022-08-01T13:31:34;57.27;;;2.20;;
1308;SDS011;647;48.840;9.314;2022-08-01T13:34:02;57.30;;;2.20;;
1308;SDS011;647;48.840;9.314;2022-08-01T13:36:30;57.60;;;2.20;;
1308;SDS011;647;48.840;9.314;2022-08-01T13:38:57;57.27;;;2.13;;
1308;SDS011;647;48.840;9.314;2022-08-01T13:41:43;57.37;;;2.10;;
1308;SDS011;647;48.840;9.314;2022-08-01T13:44:10;57.60;;;2.30;;
1308;SDS011;647;48.840;9.314;2022-08-01T13:46:38;57.37;;;2.40;;
1308;SDS011;647;48.840;9.314;2022-08-01T13:49:06;57.20;;;2.47;;
1308;SDS011;647;48.840;9.314;2022-08-01T13:51:34;56.83;;;1.93;;
1308;SDS011;647;48.840;9.314;2022-08-01T13:54:01;56.73;;;2.20;;
1308;SDS011;647;48.840;9.314;2022-08-01T13:56:28;56.83;;;1.97;;
1308;SDS011;647;48.840;9.314;2022-08-01T13:58:57;57.47;;;2.20;;
1308;SDS011;647;48.840;9.314;2022-08-01T14:01:24;56.80;;;2.03;;
1308;SDS011;647;48.840;9.314;2022-08-01T14:03:51;56.97;;;2.37;;
1308;SDS011;647;48.840;9.314;2022-08-01T14:06:18;57.37;;;2.40;;
1308;SDS011;647;48.840;9.314;2022-08-01T14:08:47;57.40;;;2.10;;
1308;SDS011;647;48.840;9.314;2022-08-01T14:11:14;58.00;;;2.33;;
1308;SDS011;647;48.840;9.314;2022-08-01T14:13:42;57.67;;;2.20;;
1308;SDS011;647;48.840;9.314;2022-08-01T14:16:10;57.80;;;2.30;;
1308;SDS011;647;48.840;9.314;2022-08-01T14:18:38;57.33;;;2.20;;
1308;SDS011;647;48.840;9.314;2022-08-01T14:21:05;57.70;;;2.13;;
1308;SDS011;647;48.840;9.314;2022-08-01T14:23:32;57.30;;;2.10;;
1308;SDS011;647;48.840;9.314;2022-08-01T14:25:59;57.20;;;2.07;;
1308;SDS011;647;48.840;9.314;2022-08-01T14:28:26;57.27;;;2.10;;
1308;SDS011;647;48.840;9.314;2022-08-01T14:30:55;58.00;;;2.87;;
1308;SDS011;647;48.840;9.314;2022-08-01T14:33:23;57.37;;;2.10;;
1308;SDS011;647;48.840;9.314;2022-08-01T14:35:51;58.07;;;2.33;;
1308;SDS011;647;48.840;9.314;2022-08-01T14:38:18;57.40;;;2.20;;
1308;SDS011;647;48.840;9.314;2022-08-01T14:40:45;58.07;;;2.30;;
1308;SDS011;647;48.840;9.314;2022-08-01T14:43:16;57.67;;;2.37;;
1308;SDS011;647;48.840;9.314;2022-08-01T14:45:43;58.03;;;2.63;;
1308;SDS011;647;48.840;9.314;2022-08-01T14:48:10;57.47;;;2.30;;
1308;SDS011;647;48.840;9.314;2022-08-01T14:50:39;57.50;;;2.20;;
1308;SDS011;647;48.840;9.314;2022-08-01T14:53:06;57.80;;;2.50;;
1308;SDS011;647;48.840;9.314;2022-08-01T14:55:33;57.57;;;2.20;;
1308;SDS011;647;48.840;9.314;2022-08-01T14:58:00;57.60;;;2.33;;
1308;SDS011;647;48.840;9.314;2022-08-01T15:00:27;57.60;;;2.30;;
1308;SDS011;647;48.840;9.314;2022-08-01T15:02:54;57.83;;;2.50;;
1308;SDS011;647;48.840;9.314;2022-08-01T15:05:21;58.27;;;2.13;;
1308;SDS011;647;48.840;9.314;2022-08-01T15:07:50;58.10;;;2.40;;
1308;SDS011;647;48.840;9.314;2022-08-01T15:10:17;57.67;;;2.40;;
1308;SDS011;647;48.840;9.314;2022-08-01T15:12:44;57.70;;;2.20;;
1308;SDS011;647;48.840;9.314;2022-08-01T15:15:11;58.07;;;2.20;;
1308;SDS011;647;48.840;9.314;2022-08-01T15:17:38;57.43;;;2.30;;
1308;SDS011;647;48.840;9.314;2022-08-01T15:20:06;57.60;;;2.20;;
1308;SDS011;647;48.840;9.314;2022-08-01T15:22:33;57.60;;;2.47;;
1308;SDS011;647;48.840;9.314;2022-08-01T15:25:02;57.70;;;2.00;;
1308;SDS011;647;48.840;9.314;2022-08-01T15:27:29;57.90;;;2.43;;
1308;SDS011;647;48.840;9.314;2022-08-01T15:29:57;57.77;;;2.40;;
1308;SDS011;647;48.840;9.314;2022-08-01T15:32:24;57.40;;;2.23;;
1308;SDS011;647;48.840;9.314;2022-08-01T15:34:51;57.57;;;2.07;;
1308;SDS011;647;48.840;9.314;2022-08-01T15:37:19;58.00;;;2.20;;
1308;SDS011;647;48.840;9.314;2022-08-01T15:39:46;57.53;;;2.53;;